createdAt,value
2023-01-11T00:01:57.728Z,94419.13
2023-01-11T00:04:30.306Z,94419.94
2023-01-11T00:06:58.287Z,94405.38
2023-01-11T00:09:25.147Z,94404.88
2023-01-11T00:11:51.989Z,94399.53
2023-01-11T00:14:18.823Z,94408.00
2023-01-11T00:16:45.921Z,94409.53
2023-01-11T00:19:13.420Z,94413.22
2023-01-11T00:21:40.081Z,94413.72
2023-01-11T00:24:06.894Z,94417.97
2023-01-11T00:26:33.596Z,94411.06
2023-01-11T00:29:00.343Z,94412.63
2023-01-11T00:31:27.160Z,94402.88
2023-01-11T00:33:53.921Z,94394.44
2023-01-11T00:36:21.635Z,94408.41
2023-01-11T00:38:51.662Z,94393.63
2023-01-11T00:41:37.491Z,94379.13
2023-01-11T00:44:23.778Z,94397.00
2023-01-11T00:47:09.542Z,94384.53
2023-01-11T00:49:36.308Z,94397.72
2023-01-11T00:52:05.642Z,94395.06
2023-01-11T00:54:32.295Z,94386.13
2023-01-11T00:56:58.940Z,94363.44
2023-01-11T00:59:25.644Z,94375.28
2023-01-11T01:01:52.267Z,94377.66
2023-01-11T01:04:18.977Z,94378.22
2023-01-11T01:06:45.663Z,94375.59
2023-01-11T01:09:12.450Z,94365.75
2023-01-11T01:11:39.115Z,94370.81
2023-01-11T01:14:24.597Z,94366.81
2023-01-11T01:16:52.452Z,94365.75
2023-01-11T01:19:21.120Z,94365.25
2023-01-11T01:21:48.356Z,94362.84
2023-01-11T01:24:15.225Z,94367.06
2023-01-11T01:26:42.602Z,94382.13
2023-01-11T01:29:09.332Z,94368.13
2023-01-11T01:31:36.118Z,94363.66
2023-01-11T01:34:02.818Z,94369.97
2023-01-11T01:36:29.454Z,94375.75
2023-01-11T01:38:56.160Z,94344.84
2023-01-11T01:41:22.852Z,94369.59
2023-01-11T01:43:53.168Z,94370.59
2023-01-11T01:46:21.916Z,94358.16
2023-01-11T01:48:53.555Z,94368.44
2023-01-11T01:51:45.847Z,94354.59
2023-01-11T01:54:17.714Z,94357.22
2023-01-11T01:56:52.771Z,94345.53
2023-01-11T01:59:22.058Z,94345.00
2023-01-11T02:01:49.995Z,94344.44
2023-01-11T02:04:28.795Z,94339.66
2023-01-11T02:07:25.154Z,94334.28
2023-01-11T02:09:55.920Z,94325.53
2023-01-11T02:12:25.330Z,94326.78
2023-01-11T02:14:53.706Z,94321.72
2023-01-11T02:17:21.603Z,94320.34
2023-01-11T02:19:51.316Z,94322.97
2023-01-11T02:22:46.538Z,94320.03
2023-01-11T02:25:40.935Z,94314.66
2023-01-11T02:28:15.749Z,94286.84
2023-01-11T02:31:02.619Z,94299.53
2023-01-11T02:33:43.424Z,94285.72
2023-01-11T02:36:19.450Z,94293.03
2023-01-11T02:39:03.219Z,94280.78
2023-01-11T02:41:57.750Z,94283.16
2023-01-11T02:44:49.408Z,94287.16
2023-01-11T02:47:28.878Z,94291.91
2023-01-11T02:50:04.286Z,94290.66
2023-01-11T02:52:47.733Z,94286.66
2023-01-11T02:55:18.646Z,94293.03
2023-01-11T02:57:47.064Z,94297.03
2023-01-11T03:00:16.928Z,94284.88
2023-01-11T03:02:43.639Z,94276.47
2023-01-11T03:05:14.717Z,94281.88
2023-01-11T03:08:19.106Z,94281.88
2023-01-11T03:11:04.532Z,94283.94
2023-01-11T03:13:49.365Z,94286.59
2023-01-11T03:16:22.227Z,94282.28
2023-01-11T03:18:58.015Z,94278.06
2023-01-11T03:21:36.703Z,94278.06
2023-01-11T03:24:31.114Z,94291.75
2023-01-11T03:27:33.161Z,94290.19
2023-01-11T03:30:15.413Z,94273.47
2023-01-11T03:32:54.234Z,94270.59
2023-01-11T03:35:39.429Z,94252.53
2023-01-11T03:38:13.057Z,94261.28
2023-01-11T03:40:49.760Z,94254.78
2023-01-11T03:43:19.950Z,94248.59
2023-01-11T03:45:56.011Z,94252.25
2023-01-11T03:48:32.980Z,94251.47
2023-01-11T03:51:01.600Z,94247.75
2023-01-11T03:53:32.095Z,94255.13
2023-01-11T03:56:00.646Z,94251.13
2023-01-11T03:58:28.338Z,94247.19
2023-01-11T04:00:59.633Z,94251.97
2023-01-11T04:03:27.306Z,94241.72
2023-01-11T04:05:59.350Z,94251.97
2023-01-11T04:08:26.415Z,94258.50
2023-01-11T04:10:53.089Z,94260.38
2023-01-11T04:13:19.773Z,94250.78
2023-01-11T04:15:46.606Z,94249.66
2023-01-11T04:18:13.276Z,94243.50
2023-01-11T04:20:41.213Z,94252.69
2023-01-11T04:23:09.914Z,94236.78
2023-01-11T04:25:36.698Z,94245.16
2023-01-11T04:28:03.586Z,94229.81
2023-01-11T04:30:30.218Z,94230.03
2023-01-11T04:33:00.045Z,94236.13
2023-01-11T04:35:27.172Z,94246.13
2023-01-11T04:37:57.713Z,94233.94
2023-01-11T04:40:25.657Z,94227.06
2023-01-11T04:42:52.326Z,94230.81
2023-01-11T04:45:19.063Z,94241.34
2023-01-11T04:47:45.830Z,94233.75
2023-01-11T04:50:12.684Z,94221.28
2023-01-11T04:52:41.668Z,94228.16
2023-01-11T04:55:09.347Z,94222.19
2023-01-11T04:57:36.644Z,94219.25
2023-01-11T05:00:10.806Z,94221.59
2023-01-11T05:02:38.335Z,94215.00
2023-01-11T05:05:06.487Z,94226.34
2023-01-11T05:07:33.519Z,94229.50
2023-01-11T05:10:00.185Z,94223.41
2023-01-11T05:12:26.861Z,94231.75
2023-01-11T05:14:53.726Z,94221.34
2023-01-11T05:17:20.445Z,94216.31
2023-01-11T05:19:47.514Z,94220.47
2023-01-11T05:22:14.339Z,94218.81
2023-01-11T05:24:41.115Z,94216.75
2023-01-11T05:27:07.873Z,94215.00
2023-01-11T05:29:34.608Z,94204.88
2023-01-11T05:32:01.330Z,94209.31
2023-01-11T05:34:28.048Z,94203.41
2023-01-11T05:36:54.687Z,94192.69
2023-01-11T05:39:23.125Z,94186.88
2023-01-11T05:41:49.759Z,94180.00
2023-01-11T05:44:35.349Z,94170.97
2023-01-11T05:47:02.051Z,94173.31
2023-01-11T05:49:28.833Z,94171.44
2023-01-11T05:51:55.508Z,94178.34
2023-01-11T05:54:22.204Z,94172.53
2023-01-11T05:56:48.868Z,94176.25
2023-01-11T05:59:15.525Z,94178.91
2023-01-11T06:01:42.193Z,94179.78
2023-01-11T06:04:08.987Z,94178.50
2023-01-11T06:06:35.702Z,94175.69
2023-01-11T06:09:02.537Z,94176.47
2023-01-11T06:11:29.229Z,94170.66
2023-01-11T06:13:56.063Z,94174.09
2023-01-11T06:16:23.842Z,94182.34
2023-01-11T06:18:52.410Z,94175.97
2023-01-11T06:21:20.033Z,94170.53
2023-01-11T06:23:50.856Z,94172.00
2023-01-11T06:26:20.713Z,94172.28
2023-01-11T06:28:48.214Z,94179.78
2023-01-11T06:31:17.343Z,94168.16
2023-01-11T06:33:45.308Z,94177.00
2023-01-11T06:36:13.372Z,94176.00
2023-01-11T06:38:40.978Z,94175.19
2023-01-11T06:41:08.809Z,94171.03
2023-01-11T06:43:37.282Z,94183.25
2023-01-11T06:46:04.747Z,94181.66
2023-01-11T06:48:31.777Z,94182.16
2023-01-11T06:50:58.826Z,94196.44
2023-01-11T06:53:28.875Z,94195.34
2023-01-11T06:55:57.929Z,94196.44
2023-01-11T06:58:26.169Z,94196.44
2023-01-11T07:00:54.790Z,94198.09
2023-01-11T07:03:24.195Z,94201.53
2023-01-11T07:05:52.513Z,94182.44
2023-01-11T07:08:20.158Z,94192.91
2023-01-11T07:10:47.150Z,94187.41
2023-01-11T07:13:17.713Z,94181.22
2023-01-11T07:15:50.598Z,94185.25
2023-01-11T07:18:18.835Z,94185.75
2023-01-11T07:20:45.765Z,94183.94
2023-01-11T07:23:12.489Z,94181.38
2023-01-11T07:25:39.319Z,94181.75
2023-01-11T07:28:07.952Z,94186.28
2023-01-11T07:30:55.604Z,94194.75
2023-01-11T07:33:25.085Z,94185.72
2023-01-11T07:35:51.848Z,94185.00
2023-01-11T07:38:18.504Z,94187.94
2023-01-11T07:40:45.176Z,94183.78
2023-01-11T07:43:18.371Z,94189.59
2023-01-11T07:45:50.635Z,94187.16
2023-01-11T07:48:21.409Z,94182.69
2023-01-11T07:50:48.866Z,94180.41
2023-01-11T07:53:15.647Z,94177.56
2023-01-11T07:55:42.708Z,94180.50
2023-01-11T07:58:12.200Z,94183.66
2023-01-11T08:00:40.864Z,94183.84
2023-01-11T08:03:07.922Z,94179.16
2023-01-11T08:05:34.718Z,94172.66
2023-01-11T08:08:01.682Z,94167.94
2023-01-11T08:10:28.419Z,94183.41
2023-01-11T08:13:13.860Z,94189.22
2023-01-11T08:15:42.719Z,94181.25
2023-01-11T08:18:11.585Z,94191.41
2023-01-11T08:20:39.563Z,94192.13
2023-01-11T08:23:08.794Z,94196.88
2023-01-11T08:25:35.893Z,94193.16
2023-01-11T08:28:04.841Z,94195.13
2023-01-11T08:30:32.213Z,94191.50
2023-01-11T08:33:01.463Z,94199.69
2023-01-11T08:35:28.220Z,94180.41
2023-01-11T08:37:54.927Z,94189.47
2023-01-11T08:40:23.906Z,94195.34
2023-01-11T08:42:59.864Z,94180.44
2023-01-11T08:45:26.897Z,94187.28
2023-01-11T08:47:54.343Z,94195.94
2023-01-11T08:50:22.489Z,94209.88
2023-01-11T08:52:51.080Z,94210.28
2023-01-11T08:55:18.954Z,94193.91
2023-01-11T08:57:46.082Z,94201.22
2023-01-11T09:00:13.343Z,94189.66
2023-01-11T09:02:40.006Z,94192.19
2023-01-11T09:05:07.017Z,94193.47
2023-01-11T09:07:33.670Z,94186.00
2023-01-11T09:10:00.320Z,94184.19
2023-01-11T09:12:27.709Z,94183.00
2023-01-11T09:14:54.515Z,94185.88
2023-01-11T09:17:21.183Z,94195.31
2023-01-11T09:19:47.873Z,94193.31
2023-01-11T09:22:14.658Z,94193.69
2023-01-11T09:24:41.358Z,94196.84
2023-01-11T09:27:08.080Z,94198.41
2023-01-11T09:29:37.186Z,94200.00
2023-01-11T09:32:04.515Z,94189.16
2023-01-11T09:34:31.709Z,94199.41
2023-01-11T09:37:00.722Z,94193.16
2023-01-11T09:39:28.837Z,94177.97
2023-01-11T09:42:19.064Z,94191.34
2023-01-11T09:44:51.045Z,94195.19
2023-01-11T09:47:27.808Z,94187.69
2023-01-11T09:49:58.607Z,94189.91
2023-01-11T09:52:38.329Z,94185.84
2023-01-11T09:55:06.504Z,94175.19
2023-01-11T09:58:03.110Z,94176.53
2023-01-11T10:00:41.951Z,94171.47
2023-01-11T10:03:27.348Z,94160.09
2023-01-11T10:06:34.816Z,94158.06
2023-01-11T10:18:30.456Z,94143.50
2023-01-11T10:19:31.623Z,94145.69
2023-01-11T10:22:01.469Z,94135.53
2023-01-11T10:24:37.253Z,94131.34
2023-01-11T10:27:10.743Z,94125.53
2023-01-11T10:29:51.589Z,94130.44
2023-01-11T10:32:40.688Z,94121.38
2023-01-11T10:35:37.204Z,94120.31
2023-01-11T10:38:43.462Z,94111.69
2023-01-11T10:41:23.907Z,94109.34
2023-01-11T10:44:02.925Z,94112.97
2023-01-11T10:46:32.530Z,94103.09
2023-01-11T10:49:21.306Z,94112.81
2023-01-11T10:51:49.319Z,94112.50
2023-01-11T10:54:20.192Z,94117.84
2023-01-11T10:57:09.009Z,94128.50
2023-01-11T10:59:46.825Z,94128.03
2023-01-11T11:02:51.031Z,94120.97
2023-01-11T11:05:36.143Z,94125.34
2023-01-11T11:08:26.677Z,94114.84
2023-01-11T11:10:56.538Z,94112.94
2023-01-11T11:13:43.465Z,94107.31
2023-01-11T11:16:22.473Z,94113.75
2023-01-11T11:18:51.420Z,94100.72
2023-01-11T11:21:35.617Z,94106.22
2023-01-11T11:24:06.456Z,94096.81
2023-01-11T11:26:38.391Z,94101.34
2023-01-11T11:29:07.870Z,94105.47
2023-01-11T11:31:37.908Z,94092.75
2023-01-11T11:34:13.817Z,94089.59
2023-01-11T11:36:42.600Z,94081.78
2023-01-11T11:39:20.982Z,94082.56
2023-01-11T11:41:52.140Z,94087.72
2023-01-11T11:44:28.643Z,94077.22
2023-01-11T11:47:04.670Z,94082.84
2023-01-11T11:49:34.192Z,94081.47
2023-01-11T11:52:03.857Z,94073.16
2023-01-11T11:54:43.428Z,94066.25
2023-01-11T11:57:22.679Z,94069.84
2023-01-11T11:59:52.956Z,94065.00
2023-01-11T12:02:31.195Z,94067.66
2023-01-11T12:05:00.595Z,94065.00
2023-01-11T12:07:36.116Z,94057.63
2023-01-11T12:10:20.090Z,94048.03
2023-01-11T12:13:02.666Z,94045.38
2023-01-11T12:15:31.886Z,94050.09
2023-01-11T12:18:37.734Z,94051.34
2023-01-11T12:21:26.161Z,94041.78
2023-01-11T12:24:13.574Z,94038.00
2023-01-11T12:26:40.265Z,94044.75
2023-01-11T12:29:13.229Z,94039.72
2023-01-11T12:31:48.913Z,94046.31
2023-01-11T12:34:27.657Z,94038.00
2023-01-11T12:37:20.286Z,94044.59
2023-01-11T12:40:12.626Z,94033.94
2023-01-11T12:42:50.093Z,94042.84
2023-01-11T12:45:34.161Z,94043.31
2023-01-11T12:48:16.858Z,94041.13
2023-01-11T12:51:08.375Z,94041.28
2023-01-11T12:53:48.612Z,94047.41
2023-01-11T12:56:42.201Z,94036.75
2023-01-11T12:59:30.523Z,94038.31
2023-01-11T13:02:13.616Z,94030.63
2023-01-11T13:04:42.874Z,94035.34
2023-01-11T13:07:24.598Z,94028.13
2023-01-11T13:10:13.212Z,94028.75
2023-01-11T13:12:50.298Z,94023.41
2023-01-11T13:15:30.160Z,94037.69
2023-01-11T13:18:16.341Z,94030.47
2023-01-11T13:21:01.814Z,94035.81
2023-01-11T13:23:42.063Z,94037.69
2023-01-11T13:26:19.598Z,94037.22
2023-01-11T13:28:52.044Z,94037.69
2023-01-11T13:31:19.762Z,94030.78
2023-01-11T13:33:52.789Z,94036.59
2023-01-11T13:36:25.745Z,94047.25
2023-01-11T13:39:04.973Z,94045.69
2023-01-11T13:41:48.980Z,94045.53
2023-01-11T13:44:24.589Z,94047.09
2023-01-11T13:46:57.319Z,94043.81
2023-01-11T13:49:49.398Z,94048.03
2023-01-11T13:52:32.861Z,94043.94
2023-01-11T13:55:41.743Z,94055.28
2023-01-11T13:58:14.772Z,94046.81
2023-01-11T14:00:49.098Z,94048.22
2023-01-11T14:03:27.023Z,94061.72
2023-01-11T14:06:12.573Z,94058.88
2023-01-11T14:08:57.972Z,94061.38
2023-01-11T14:11:44.566Z,94063.09
2023-01-11T14:14:14.015Z,94066.25
2023-01-11T14:17:11.537Z,94065.16
2023-01-11T14:20:12.180Z,94065.44
2023-01-11T14:23:18.031Z,94068.44
2023-01-11T14:26:09.140Z,94077.53
2023-01-11T14:29:13.533Z,94085.06
2023-01-11T14:32:16.242Z,94089.47
2023-01-11T14:35:29.278Z,94096.81
2023-01-11T14:38:14.766Z,94102.16
2023-01-11T14:41:08.171Z,94106.38
2023-01-11T14:43:52.991Z,94116.75
2023-01-11T14:46:35.156Z,94113.75
2023-01-11T14:49:17.065Z,94112.38
2023-01-11T14:51:43.671Z,94113.16
2023-01-11T14:54:22.624Z,94109.22
2023-01-11T14:56:57.963Z,94115.19
2023-01-11T14:59:30.659Z,94115.38
2023-01-11T15:02:16.899Z,94116.16
2023-01-11T15:04:53.184Z,94116.47
2023-01-11T15:07:22.678Z,94117.25
2023-01-11T15:09:51.883Z,94122.75
2023-01-11T15:12:21.864Z,94133.88
2023-01-11T15:15:12.386Z,94127.47
2023-01-11T15:17:59.239Z,94126.97
2023-01-11T15:20:26.733Z,94123.22
2023-01-11T15:23:02.298Z,94124.00
2023-01-11T15:25:33.725Z,94134.97
2023-01-11T15:28:25.127Z,94148.31
2023-01-11T15:30:52.827Z,94151.78
2023-01-11T15:33:19.612Z,94161.66
2023-01-11T15:35:55.609Z,94163.38
2023-01-11T15:38:28.148Z,94169.34
2023-01-11T15:41:18.466Z,94167.94
2023-01-11T15:43:48.002Z,94170.59
2023-01-11T15:46:55.878Z,94177.34
2023-01-11T15:49:33.581Z,94184.38
2023-01-11T15:52:09.313Z,94192.84
2023-01-11T15:54:54.130Z,94185.78
2023-01-11T15:57:53.518Z,94194.25
2023-01-11T16:00:58.504Z,94199.59
2023-01-11T16:03:49.556Z,94204.13
2023-01-11T16:06:40.775Z,94215.59
2023-01-11T16:09:44.930Z,94215.13
2023-01-11T16:12:29.892Z,94228.44
2023-01-11T16:15:16.991Z,94232.22
2023-01-11T16:17:46.257Z,94240.03
2023-01-11T16:20:28.957Z,94234.69
2023-01-11T16:22:59.074Z,94244.13
2023-01-11T16:25:30.574Z,94248.97
2023-01-11T16:27:59.422Z,94241.59
2023-01-11T16:30:27.946Z,94255.53
2023-01-11T16:33:14.058Z,94258.97
2023-01-11T16:35:40.901Z,94243.09
2023-01-11T16:38:15.161Z,94250.13
2023-01-11T16:40:45.417Z,94273.84
2023-01-11T16:43:33.576Z,94279.78
2023-01-11T16:46:00.374Z,94274.13
2023-01-11T16:48:29.624Z,94288.22
2023-01-11T16:51:11.249Z,94293.06
2023-01-11T16:53:40.633Z,94287.06
2023-01-11T16:56:14.663Z,94283.56
2023-01-11T16:58:41.710Z,94306.44
2023-01-11T17:01:11.908Z,94292.31
2023-01-11T17:03:53.022Z,94311.44
2023-01-11T17:06:23.892Z,94301.09
2023-01-11T17:08:56.537Z,94307.81
2023-01-11T17:11:32.772Z,94311.84
2023-01-11T17:13:59.357Z,94310.28
2023-01-11T17:16:32.129Z,94309.97
2023-01-11T17:19:05.662Z,94309.00
2023-01-11T17:21:32.591Z,94302.22
2023-01-11T17:24:02.662Z,94316.03
2023-01-11T17:26:31.995Z,94320.84
2023-01-11T17:29:00.024Z,94319.31
2023-01-11T17:31:33.030Z,94319.59
2023-01-11T17:34:03.168Z,94314.00
2023-01-11T17:36:31.331Z,94315.28
2023-01-11T17:38:59.295Z,94324.06
2023-01-11T17:41:46.562Z,94328.59
2023-01-11T17:44:36.888Z,94314.00
2023-01-11T17:47:07.162Z,94326.06
2023-01-11T17:49:35.374Z,94332.56
2023-01-11T17:52:11.048Z,94329.56
2023-01-11T17:54:37.809Z,94342.72
2023-01-11T17:57:05.519Z,94349.16
2023-01-11T17:59:32.264Z,94341.44
2023-01-11T18:02:09.747Z,94354.47
2023-01-11T18:04:36.470Z,94357.72
2023-01-11T18:07:16.907Z,94352.69
2023-01-11T18:09:47.061Z,94359.41
2023-01-11T18:12:32.762Z,94339.09
2023-01-11T18:15:07.000Z,94356.06
2023-01-11T18:17:37.147Z,94374.09
2023-01-11T18:20:29.467Z,94374.41
2023-01-11T18:22:58.783Z,94379.22
2023-01-11T18:25:27.968Z,94377.94
2023-01-11T18:28:29.900Z,94381.09
2023-01-11T18:31:01.709Z,94380.59
2023-01-11T18:33:31.786Z,94376.69
2023-01-11T18:36:01.795Z,94387.50
2023-01-11T18:38:34.086Z,94392.66
2023-01-11T18:41:24.280Z,94397.19
2023-01-11T18:43:52.256Z,94385.84
2023-01-11T18:46:19.081Z,94395.13
2023-01-11T18:48:46.118Z,94385.13
2023-01-11T18:51:24.766Z,94372.75
2023-01-11T18:53:51.440Z,94382.81
2023-01-11T18:56:18.078Z,94386.06
2023-01-11T18:58:44.815Z,94392.66
2023-01-11T19:01:11.928Z,94409.31
2023-01-11T19:03:38.748Z,94403.31
2023-01-11T19:06:06.170Z,94393.13
2023-01-11T19:08:32.920Z,94397.66
2023-01-11T19:10:59.569Z,94400.66
2023-01-11T19:13:26.223Z,94402.69
2023-01-11T19:15:52.890Z,94385.56
2023-01-11T19:18:19.586Z,94404.41
2023-01-11T19:20:46.201Z,94405.66
2023-01-11T19:23:12.827Z,94404.84
2023-01-11T19:25:39.522Z,94415.41
2023-01-11T19:28:06.258Z,94420.94
2023-01-11T19:30:32.945Z,94419.66
2023-01-11T19:32:59.677Z,94419.66
2023-01-11T19:35:26.362Z,94417.72
2023-01-11T19:37:53.066Z,94436.13
2023-01-11T19:40:21.284Z,94424.00
2023-01-11T19:42:48.041Z,94421.75
2023-01-11T19:45:14.979Z,94422.63
2023-01-11T19:47:42.258Z,94436.22
2023-01-11T19:50:09.729Z,94436.03
2023-01-11T19:52:36.403Z,94433.94
2023-01-11T19:55:03.142Z,94428.63
2023-01-11T19:57:29.918Z,94419.66
2023-01-11T19:59:56.539Z,94421.94
2023-01-11T20:02:23.405Z,94419.56
2023-01-11T20:04:50.117Z,94413.53
2023-01-11T20:07:17.084Z,94426.75
2023-01-11T20:09:44.045Z,94422.31
2023-01-11T20:12:12.611Z,94429.22
2023-01-11T20:14:40.648Z,94433.94
2023-01-11T20:17:07.951Z,94428.41
2023-01-11T20:19:34.635Z,94434.16
2023-01-11T20:22:01.457Z,94444.72
2023-01-11T20:24:29.836Z,94434.75
2023-01-11T20:26:58.460Z,94456.31
2023-01-11T20:29:25.260Z,94450.50
2023-01-11T20:31:52.229Z,94459.19
2023-01-11T20:34:19.247Z,94445.31
2023-01-11T20:36:46.159Z,94468.84
2023-01-11T20:39:12.979Z,94466.97
2023-01-11T20:41:49.692Z,94477.03
2023-01-11T20:44:21.675Z,94482.66
2023-01-11T20:46:48.570Z,94486.00
2023-01-11T20:49:16.459Z,94486.31
2023-01-11T20:51:44.061Z,94495.94
2023-01-11T20:54:11.042Z,94494.66
2023-01-11T20:56:38.751Z,94491.50
2023-01-11T20:59:07.729Z,94499.75
2023-01-11T21:01:35.570Z,94503.50
2023-01-11T21:04:07.731Z,94506.66
2023-01-11T21:06:40.736Z,94498.69
2023-01-11T21:09:10.008Z,94492.47
2023-01-11T21:14:04.969Z,94508.53
2023-01-11T21:16:32.061Z,94493.44
2023-01-11T21:19:03.516Z,94501.72
2023-01-11T21:21:33.161Z,94499.75
2023-01-11T21:24:01.979Z,94501.41
2023-01-11T21:26:30.347Z,94494.56
2023-01-11T21:29:00.169Z,94495.16
2023-01-11T21:31:28.688Z,94504.94
2023-01-11T21:33:55.991Z,94489.84
2023-01-11T21:36:24.482Z,94506.88
2023-01-11T21:38:51.579Z,94512.28
2023-01-11T21:41:40.525Z,94525.38
2023-01-11T21:44:08.500Z,94520.34
2023-01-11T21:46:35.350Z,94526.44
2023-01-11T21:49:02.267Z,94526.53
2023-01-11T21:51:30.021Z,94527.81
2023-01-11T21:53:57.567Z,94519.34
2023-01-11T21:56:24.990Z,94517.31
2023-01-11T21:58:52.049Z,94521.88
2023-01-11T22:01:21.083Z,94525.00
2023-01-11T22:03:47.969Z,94498.59
2023-01-11T22:06:17.824Z,94529.34
2023-01-11T22:08:46.072Z,94515.56
2023-01-11T22:11:15.165Z,94533.44
2023-01-11T22:13:42.173Z,94547.50
2023-01-11T22:16:13.728Z,94542.84
2023-01-11T22:18:41.372Z,94554.47
2023-01-11T22:21:17.923Z,94566.19
2023-01-11T22:23:46.568Z,94552.47
2023-01-11T22:26:15.456Z,94570.50
2023-01-11T22:29:01.311Z,94561.53
2023-01-11T22:31:29.383Z,94573.75
2023-01-11T22:33:57.131Z,94566.16
2023-01-11T22:36:25.087Z,94576.53
2023-01-11T22:38:52.244Z,94591.63
2023-01-11T22:41:19.516Z,94576.56
2023-01-11T22:43:46.418Z,94573.63
2023-01-11T22:46:15.690Z,94572.78
2023-01-11T22:48:42.889Z,94570.91
2023-01-11T22:51:11.106Z,94562.66
2023-01-11T22:53:39.637Z,94564.25
2023-01-11T22:56:07.472Z,94566.41
2023-01-11T22:58:36.012Z,94564.59
2023-01-11T23:01:20.233Z,94566.50
2023-01-11T23:03:47.680Z,94567.69
2023-01-11T23:06:20.655Z,94574.84
2023-01-11T23:08:47.761Z,94573.31
2023-01-11T23:11:38.827Z,94576.03
2023-01-11T23:14:08.638Z,94591.41
2023-01-11T23:16:35.876Z,94588.00
2023-01-11T23:19:04.206Z,94585.06
2023-01-11T23:21:31.192Z,94591.19
2023-01-11T23:23:58.025Z,94575.38
2023-01-11T23:26:24.778Z,94572.50
2023-01-11T23:28:51.496Z,94568.59
2023-01-11T23:31:21.294Z,94568.25
2023-01-11T23:33:56.600Z,94569.31
2023-01-11T23:36:27.515Z,94565.59
2023-01-11T23:38:54.483Z,94555.81
2023-01-11T23:41:50.893Z,94553.97
2023-01-11T23:44:18.575Z,94553.16
2023-01-11T23:47:04.355Z,94547.13
2023-01-11T23:49:32.027Z,94555.63
2023-01-11T23:51:58.975Z,94543.78
2023-01-11T23:54:27.693Z,94556.50
2023-01-11T23:56:55.113Z,94555.50
2023-01-11T23:59:21.885Z,94553.94
